sensor_id;sensor_type;location;lat;lon;timestamp;temperature;humidity
21171;DHT22;10743;52.160;20.910;2023-05-07T00:02:05;21.90;39.90
21171;DHT22;10743;52.160;20.910;2023-05-07T00:04:34;21.90;39.90
21171;DHT22;10743;52.160;20.910;2023-05-07T00:07:04;21.80;39.80
21171;DHT22;10743;52.160;20.910;2023-05-07T00:09:32;21.80;39.80
21171;DHT22;10743;52.160;20.910;2023-05-07T00:11:59;21.80;39.70
21171;DHT22;10743;52.160;20.910;2023-05-07T00:14:26;21.80;39.80
21171;DHT22;10743;52.160;20.910;2023-05-07T00:16:53;21.80;39.90
21171;DHT22;10743;52.160;20.910;2023-05-07T00:19:20;21.80;39.80
21171;DHT22;10743;52.160;20.910;2023-05-07T00:21:47;21.80;39.80
21171;DHT22;10743;52.160;20.910;2023-05-07T00:24:14;21.80;40.00
21171;DHT22;10743;52.160;20.910;2023-05-07T00:26:41;21.80;39.90
21171;DHT22;10743;52.160;20.910;2023-05-07T00:29:08;21.80;39.80
21171;DHT22;10743;52.160;20.910;2023-05-07T00:31:35;21.80;39.70
21171;DHT22;10743;52.160;20.910;2023-05-07T00:34:03;21.80;39.80
21171;DHT22;10743;52.160;20.910;2023-05-07T00:36:30;21.80;39.90
21171;DHT22;10743;52.160;20.910;2023-05-07T00:38:59;21.80;39.80
21171;DHT22;10743;52.160;20.910;2023-05-07T00:41:27;21.80;39.70
21171;DHT22;10743;52.160;20.910;2023-05-07T00:43:54;21.80;39.60
21171;DHT22;10743;52.160;20.910;2023-05-07T00:46:21;21.80;39.70
21171;DHT22;10743;52.160;20.910;2023-05-07T00:48:50;21.80;39.60
21171;DHT22;10743;52.160;20.910;2023-05-07T00:51:18;21.80;39.60
21171;DHT22;10743;52.160;20.910;2023-05-07T00:53:45;21.80;39.60
21171;DHT22;10743;52.160;20.910;2023-05-07T00:56:13;21.80;39.50
21171;DHT22;10743;52.160;20.910;2023-05-07T00:58:40;21.80;39.50
21171;DHT22;10743;52.160;20.910;2023-05-07T01:01:07;21.80;39.50
21171;DHT22;10743;52.160;20.910;2023-05-07T01:03:34;21.80;39.80
21171;DHT22;10743;52.160;20.910;2023-05-07T01:06:03;21.80;39.70
21171;DHT22;10743;52.160;20.910;2023-05-07T01:08:31;21.80;39.60
21171;DHT22;10743;52.160;20.910;2023-05-07T01:10:59;21.80;39.70
21171;DHT22;10743;52.160;20.910;2023-05-07T01:13:27;21.80;39.60
21171;DHT22;10743;52.160;20.910;2023-05-07T01:15:55;21.70;39.60
21171;DHT22;10743;52.160;20.910;2023-05-07T01:18:22;21.70;39.70
21171;DHT22;10743;52.160;20.910;2023-05-07T01:20:49;21.60;39.80
21171;DHT22;10743;52.160;20.910;2023-05-07T01:23:17;21.60;39.80
21171;DHT22;10743;52.160;20.910;2023-05-07T01:25:54;21.60;39.80
21171;DHT22;10743;52.160;20.910;2023-05-07T01:28:24;21.60;39.80
21171;DHT22;10743;52.160;20.910;2023-05-07T01:31:00;21.60;39.80
21171;DHT22;10743;52.160;20.910;2023-05-07T01:33:31;21.60;39.90
21171;DHT22;10743;52.160;20.910;2023-05-07T01:36:01;21.50;39.80
21171;DHT22;10743;52.160;20.910;2023-05-07T01:38:33;21.50;39.90
21171;DHT22;10743;52.160;20.910;2023-05-07T01:41:00;21.50;40.00
21171;DHT22;10743;52.160;20.910;2023-05-07T01:43:28;21.40;40.00
21171;DHT22;10743;52.160;20.910;2023-05-07T01:45:57;21.40;40.00
21171;DHT22;10743;52.160;20.910;2023-05-07T01:48:26;21.40;40.00
21171;DHT22;10743;52.160;20.910;2023-05-07T01:50:53;21.40;40.10
21171;DHT22;10743;52.160;20.910;2023-05-07T01:53:21;21.40;40.20
21171;DHT22;10743;52.160;20.910;2023-05-07T01:55:48;21.40;40.20
21171;DHT22;10743;52.160;20.910;2023-05-07T01:58:16;21.40;40.20
21171;DHT22;10743;52.160;20.910;2023-05-07T02:00:43;21.40;40.20
21171;DHT22;10743;52.160;20.910;2023-05-07T02:03:10;21.40;40.20
21171;DHT22;10743;52.160;20.910;2023-05-07T02:05:48;21.40;40.40
21171;DHT22;10743;52.160;20.910;2023-05-07T02:08:24;21.40;40.30
21171;DHT22;10743;52.160;20.910;2023-05-07T02:10:52;21.30;40.30
21171;DHT22;10743;52.160;20.910;2023-05-07T02:13:20;21.30;40.30
21171;DHT22;10743;52.160;20.910;2023-05-07T02:15:49;21.30;40.30
21171;DHT22;10743;52.160;20.910;2023-05-07T02:18:17;21.30;40.30
21171;DHT22;10743;52.160;20.910;2023-05-07T02:20:44;21.30;40.30
21171;DHT22;10743;52.160;20.910;2023-05-07T02:23:12;21.30;40.40
21171;DHT22;10743;52.160;20.910;2023-05-07T02:25:39;21.30;40.40
21171;DHT22;10743;52.160;20.910;2023-05-07T02:28:06;21.30;40.40
21171;DHT22;10743;52.160;20.910;2023-05-07T02:30:41;21.30;40.40
21171;DHT22;10743;52.160;20.910;2023-05-07T02:33:08;21.20;40.40
21171;DHT22;10743;52.160;20.910;2023-05-07T02:35:36;21.20;40.40
21171;DHT22;10743;52.160;20.910;2023-05-07T02:38:03;21.20;40.50
21171;DHT22;10743;52.160;20.910;2023-05-07T02:40:31;21.20;40.50
21171;DHT22;10743;52.160;20.910;2023-05-07T02:43:00;21.20;40.50
21171;DHT22;10743;52.160;20.910;2023-05-07T02:45:27;21.20;40.60
21171;DHT22;10743;52.160;20.910;2023-05-07T02:47:54;21.20;40.50
21171;DHT22;10743;52.160;20.910;2023-05-07T02:50:21;21.20;40.60
21171;DHT22;10743;52.160;20.910;2023-05-07T02:52:48;21.20;40.60
21171;DHT22;10743;52.160;20.910;2023-05-07T02:55:16;21.20;40.70
21171;DHT22;10743;52.160;20.910;2023-05-07T02:57:43;21.20;40.70
21171;DHT22;10743;52.160;20.910;2023-05-07T03:00:15;21.20;40.60
21171;DHT22;10743;52.160;20.910;2023-05-07T03:03:09;21.20;40.70
21171;DHT22;10743;52.160;20.910;2023-05-07T03:05:37;21.20;40.60
21171;DHT22;10743;52.160;20.910;2023-05-07T03:08:04;21.20;40.60
21171;DHT22;10743;52.160;20.910;2023-05-07T03:10:31;21.20;40.70
21171;DHT22;10743;52.160;20.910;2023-05-07T03:12:58;21.20;40.70
21171;DHT22;10743;52.160;20.910;2023-05-07T03:15:26;21.20;40.70
21171;DHT22;10743;52.160;20.910;2023-05-07T03:17:53;21.20;40.70
21171;DHT22;10743;52.160;20.910;2023-05-07T03:20:20;21.20;40.70
21171;DHT22;10743;52.160;20.910;2023-05-07T03:22:47;21.20;40.60
21171;DHT22;10743;52.160;20.910;2023-05-07T03:25:15;21.20;40.70
21171;DHT22;10743;52.160;20.910;2023-05-07T03:27:42;21.20;41.30
21171;DHT22;10743;52.160;20.910;2023-05-07T03:30:10;21.20;40.60
21171;DHT22;10743;52.160;20.910;2023-05-07T03:32:38;21.20;40.60
21171;DHT22;10743;52.160;20.910;2023-05-07T03:35:08;21.20;40.60
21171;DHT22;10743;52.160;20.910;2023-05-07T03:37:35;21.20;40.70
21171;DHT22;10743;52.160;20.910;2023-05-07T03:40:04;21.10;40.60
21171;DHT22;10743;52.160;20.910;2023-05-07T03:42:40;21.10;40.70
21171;DHT22;10743;52.160;20.910;2023-05-07T03:45:08;21.10;40.60
21171;DHT22;10743;52.160;20.910;2023-05-07T03:47:38;21.10;40.70
21171;DHT22;10743;52.160;20.910;2023-05-07T03:50:08;21.20;40.70
21171;DHT22;10743;52.160;20.910;2023-05-07T03:52:35;21.20;40.60
21171;DHT22;10743;52.160;20.910;2023-05-07T03:55:04;21.20;40.60
21171;DHT22;10743;52.160;20.910;2023-05-07T03:57:34;21.20;40.60
21171;DHT22;10743;52.160;20.910;2023-05-07T04:00:01;21.20;40.70
21171;DHT22;10743;52.160;20.910;2023-05-07T04:02:35;21.20;40.70
21171;DHT22;10743;52.160;20.910;2023-05-07T04:05:04;21.20;40.70
21171;DHT22;10743;52.160;20.910;2023-05-07T04:07:31;21.20;40.70
21171;DHT22;10743;52.160;20.910;2023-05-07T04:09:58;21.20;40.80
21171;DHT22;10743;52.160;20.910;2023-05-07T04:12:25;21.20;40.70
21171;DHT22;10743;52.160;20.910;2023-05-07T04:14:52;21.20;40.80
21171;DHT22;10743;52.160;20.910;2023-05-07T04:17:23;21.20;40.80
21171;DHT22;10743;52.160;20.910;2023-05-07T04:19:50;21.20;40.70
21171;DHT22;10743;52.160;20.910;2023-05-07T04:22:18;21.20;40.60
21171;DHT22;10743;52.160;20.910;2023-05-07T04:24:45;21.20;40.70
21171;DHT22;10743;52.160;20.910;2023-05-07T04:27:13;21.20;40.80
21171;DHT22;10743;52.160;20.910;2023-05-07T04:29:40;21.20;40.90
21171;DHT22;10743;52.160;20.910;2023-05-07T04:32:12;21.10;40.80
21171;DHT22;10743;52.160;20.910;2023-05-07T04:34:40;21.10;40.80
21171;DHT22;10743;52.160;20.910;2023-05-07T04:37:08;21.10;40.80
21171;DHT22;10743;52.160;20.910;2023-05-07T04:39:35;21.10;40.80
21171;DHT22;10743;52.160;20.910;2023-05-07T04:42:03;21.10;40.80
21171;DHT22;10743;52.160;20.910;2023-05-07T04:44:30;21.10;40.70
21171;DHT22;10743;52.160;20.910;2023-05-07T04:46:57;21.10;40.80
21171;DHT22;10743;52.160;20.910;2023-05-07T04:49:24;21.10;40.80
21171;DHT22;10743;52.160;20.910;2023-05-07T04:51:53;21.10;40.90
21171;DHT22;10743;52.160;20.910;2023-05-07T04:54:22;21.10;40.90
21171;DHT22;10743;52.160;20.910;2023-05-07T04:56:49;21.00;40.90
21171;DHT22;10743;52.160;20.910;2023-05-07T04:59:17;21.00;41.70
21171;DHT22;10743;52.160;20.910;2023-05-07T05:01:44;21.10;41.00
21171;DHT22;10743;52.160;20.910;2023-05-07T05:04:11;21.00;40.90
21171;DHT22;10743;52.160;20.910;2023-05-07T05:06:39;21.00;41.00
21171;DHT22;10743;52.160;20.910;2023-05-07T05:09:07;21.00;41.10
21171;DHT22;10743;52.160;20.910;2023-05-07T05:11:34;21.00;41.10
21171;DHT22;10743;52.160;20.910;2023-05-07T05:14:01;20.90;41.10
21171;DHT22;10743;52.160;20.910;2023-05-07T05:16:28;20.90;41.20
21171;DHT22;10743;52.160;20.910;2023-05-07T05:18:55;20.80;41.30
21171;DHT22;10743;52.160;20.910;2023-05-07T05:21:22;20.80;41.40
21171;DHT22;10743;52.160;20.910;2023-05-07T05:23:53;20.80;41.50
21171;DHT22;10743;52.160;20.910;2023-05-07T05:26:23;20.70;41.60
21171;DHT22;10743;52.160;20.910;2023-05-07T05:28:50;20.70;41.70
21171;DHT22;10743;52.160;20.910;2023-05-07T05:31:20;20.70;41.90
21171;DHT22;10743;52.160;20.910;2023-05-07T05:33:49;20.70;42.00
21171;DHT22;10743;52.160;20.910;2023-05-07T05:36:16;20.70;42.10
21171;DHT22;10743;52.160;20.910;2023-05-07T05:38:45;20.70;42.40
21171;DHT22;10743;52.160;20.910;2023-05-07T05:41:13;20.70;42.40
21171;DHT22;10743;52.160;20.910;2023-05-07T05:43:40;20.70;42.40
21171;DHT22;10743;52.160;20.910;2023-05-07T05:46:07;20.70;42.40
21171;DHT22;10743;52.160;20.910;2023-05-07T05:48:35;20.70;42.30
21171;DHT22;10743;52.160;20.910;2023-05-07T05:51:03;20.80;42.30
21171;DHT22;10743;52.160;20.910;2023-05-07T05:53:30;20.80;42.50
21171;DHT22;10743;52.160;20.910;2023-05-07T05:55:58;20.80;42.50
21171;DHT22;10743;52.160;20.910;2023-05-07T05:58:25;20.80;42.50
21171;DHT22;10743;52.160;20.910;2023-05-07T06:00:58;20.90;42.60
21171;DHT22;10743;52.160;20.910;2023-05-07T06:03:27;20.80;42.80
21171;DHT22;10743;52.160;20.910;2023-05-07T06:05:56;20.80;42.50
21171;DHT22;10743;52.160;20.910;2023-05-07T06:08:23;20.90;42.50
21171;DHT22;10743;52.160;20.910;2023-05-07T06:10:50;20.90;42.50
21171;DHT22;10743;52.160;20.910;2023-05-07T06:13:18;20.90;42.60
21171;DHT22;10743;52.160;20.910;2023-05-07T06:15:45;20.90;42.50
21171;DHT22;10743;52.160;20.910;2023-05-07T06:18:13;20.90;42.60
21171;DHT22;10743;52.160;20.910;2023-05-07T06:20:40;20.90;42.60
21171;DHT22;10743;52.160;20.910;2023-05-07T06:23:14;21.00;42.40
21171;DHT22;10743;52.160;20.910;2023-05-07T06:25:48;21.00;42.30
21171;DHT22;10743;52.160;20.910;2023-05-07T06:28:18;21.10;42.30
21171;DHT22;10743;52.160;20.910;2023-05-07T06:30:45;21.10;42.40
21171;DHT22;10743;52.160;20.910;2023-05-07T06:33:16;21.10;42.40
21171;DHT22;10743;52.160;20.910;2023-05-07T06:35:43;21.10;42.40
21171;DHT22;10743;52.160;20.910;2023-05-07T06:38:10;21.10;42.30
21171;DHT22;10743;52.160;20.910;2023-05-07T06:40:39;21.20;42.00
21171;DHT22;10743;52.160;20.910;2023-05-07T06:43:06;22.20;42.30
21171;DHT22;10743;52.160;20.910;2023-05-07T06:45:46;21.20;42.60
21171;DHT22;10743;52.160;20.910;2023-05-07T06:48:13;21.30;42.10
21171;DHT22;10743;52.160;20.910;2023-05-07T06:50:50;21.30;42.20
21171;DHT22;10743;52.160;20.910;2023-05-07T06:53:18;21.40;42.10
21171;DHT22;10743;52.160;20.910;2023-05-07T06:55:45;21.40;42.10
21171;DHT22;10743;52.160;20.910;2023-05-07T06:58:14;21.50;41.90
21171;DHT22;10743;52.160;20.910;2023-05-07T07:00:41;21.50;41.70
21171;DHT22;10743;52.160;20.910;2023-05-07T07:03:09;21.60;41.60
21171;DHT22;10743;52.160;20.910;2023-05-07T07:05:36;21.70;41.50
21171;DHT22;10743;52.160;20.910;2023-05-07T07:08:03;21.70;41.10
21171;DHT22;10743;52.160;20.910;2023-05-07T07:10:31;21.70;41.10
21171;DHT22;10743;52.160;20.910;2023-05-07T07:12:58;21.80;41.00
21171;DHT22;10743;52.160;20.910;2023-05-07T07:15:25;21.90;40.90
21171;DHT22;10743;52.160;20.910;2023-05-07T07:17:54;22.00;40.90
21171;DHT22;10743;52.160;20.910;2023-05-07T07:20:23;22.00;40.80
21171;DHT22;10743;52.160;20.910;2023-05-07T07:22:49;22.10;40.50
21171;DHT22;10743;52.160;20.910;2023-05-07T07:25:17;22.10;40.30
21171;DHT22;10743;52.160;20.910;2023-05-07T07:27:44;22.10;40.30
21171;DHT22;10743;52.160;20.910;2023-05-07T07:30:13;22.20;40.30
21171;DHT22;10743;52.160;20.910;2023-05-07T07:32:43;22.20;40.00
21171;DHT22;10743;52.160;20.910;2023-05-07T07:35:10;22.20;40.00
21171;DHT22;10743;52.160;20.910;2023-05-07T07:37:38;22.20;40.20
21171;DHT22;10743;52.160;20.910;2023-05-07T07:40:06;22.20;40.30
21171;DHT22;10743;52.160;20.910;2023-05-07T07:42:35;22.20;40.20
21171;DHT22;10743;52.160;20.910;2023-05-07T07:45:02;22.20;40.40
21171;DHT22;10743;52.160;20.910;2023-05-07T07:47:32;22.30;40.00
21171;DHT22;10743;52.160;20.910;2023-05-07T07:49:59;22.30;39.90
21171;DHT22;10743;52.160;20.910;2023-05-07T07:52:27;22.30;39.70
21171;DHT22;10743;52.160;20.910;2023-05-07T07:54:54;22.40;39.90
21171;DHT22;10743;52.160;20.910;2023-05-07T07:57:22;22.40;39.70
21171;DHT22;10743;52.160;20.910;2023-05-07T07:59:49;22.40;39.40
21171;DHT22;10743;52.160;20.910;2023-05-07T08:02:18;22.40;39.30
21171;DHT22;10743;52.160;20.910;2023-05-07T08:04:46;22.40;39.30
21171;DHT22;10743;52.160;20.910;2023-05-07T08:07:13;22.40;39.20
21171;DHT22;10743;52.160;20.910;2023-05-07T08:09:43;22.50;39.10
21171;DHT22;10743;52.160;20.910;2023-05-07T08:12:10;22.50;39.00
21171;DHT22;10743;52.160;20.910;2023-05-07T08:14:38;22.50;39.20
21171;DHT22;10743;52.160;20.910;2023-05-07T08:17:06;22.50;39.10
21171;DHT22;10743;52.160;20.910;2023-05-07T08:19:34;22.50;39.10
21171;DHT22;10743;52.160;20.910;2023-05-07T08:22:03;22.50;39.00
21171;DHT22;10743;52.160;20.910;2023-05-07T08:24:33;22.50;38.70
21171;DHT22;10743;52.160;20.910;2023-05-07T08:27:00;22.60;38.80
21171;DHT22;10743;52.160;20.910;2023-05-07T08:29:27;22.60;38.90
21171;DHT22;10743;52.160;20.910;2023-05-07T08:31:54;22.60;39.10
21171;DHT22;10743;52.160;20.910;2023-05-07T08:34:22;22.60;38.90
21171;DHT22;10743;52.160;20.910;2023-05-07T08:36:51;22.60;38.80
21171;DHT22;10743;52.160;20.910;2023-05-07T08:39:21;22.70;38.40
21171;DHT22;10743;52.160;20.910;2023-05-07T08:41:54;22.70;38.30
21171;DHT22;10743;52.160;20.910;2023-05-07T08:44:26;22.70;38.30
21171;DHT22;10743;52.160;20.910;2023-05-07T08:46:56;22.70;38.20
21171;DHT22;10743;52.160;20.910;2023-05-07T08:49:27;22.80;38.30
21171;DHT22;10743;52.160;20.910;2023-05-07T08:51:54;22.80;38.00
21171;DHT22;10743;52.160;20.910;2023-05-07T08:54:23;22.80;38.10
21171;DHT22;10743;52.160;20.910;2023-05-07T08:56:51;22.70;37.70
21171;DHT22;10743;52.160;20.910;2023-05-07T08:59:19;22.80;37.70
21171;DHT22;10743;52.160;20.910;2023-05-07T09:01:47;22.80;37.70
21171;DHT22;10743;52.160;20.910;2023-05-07T09:04:15;22.70;37.80
21171;DHT22;10743;52.160;20.910;2023-05-07T09:06:44;22.80;37.80
21171;DHT22;10743;52.160;20.910;2023-05-07T09:09:17;22.70;37.80
21171;DHT22;10743;52.160;20.910;2023-05-07T09:11:48;22.80;37.80
21171;DHT22;10743;52.160;20.910;2023-05-07T09:14:21;22.80;37.80
21171;DHT22;10743;52.160;20.910;2023-05-07T09:16:49;22.80;37.30
21171;DHT22;10743;52.160;20.910;2023-05-07T09:19:25;22.70;36.90
21171;DHT22;10743;52.160;20.910;2023-05-07T09:22:01;22.70;37.30
21171;DHT22;10743;52.160;20.910;2023-05-07T09:24:38;22.70;37.50
21171;DHT22;10743;52.160;20.910;2023-05-07T09:27:08;22.70;37.50
21171;DHT22;10743;52.160;20.910;2023-05-07T09:29:37;22.70;37.30
21171;DHT22;10743;52.160;20.910;2023-05-07T09:32:06;22.80;37.30
21171;DHT22;10743;52.160;20.910;2023-05-07T09:34:35;22.80;37.20
21171;DHT22;10743;52.160;20.910;2023-05-07T09:37:06;22.80;38.30
21171;DHT22;10743;52.160;20.910;2023-05-07T09:39:41;22.80;38.20
21171;DHT22;10743;52.160;20.910;2023-05-07T09:42:10;22.80;36.90
21171;DHT22;10743;52.160;20.910;2023-05-07T09:44:39;22.90;36.60
21171;DHT22;10743;52.160;20.910;2023-05-07T09:47:11;22.90;36.80
21171;DHT22;10743;52.160;20.910;2023-05-07T09:49:48;23.00;36.90
21171;DHT22;10743;52.160;20.910;2023-05-07T09:52:20;23.00;36.30
21171;DHT22;10743;52.160;20.910;2023-05-07T09:54:51;23.00;36.00
21171;DHT22;10743;52.160;20.910;2023-05-07T09:57:22;23.10;36.70
21171;DHT22;10743;52.160;20.910;2023-05-07T09:59:56;23.00;35.70
21171;DHT22;10743;52.160;20.910;2023-05-07T10:02:29;23.00;35.20
21171;DHT22;10743;52.160;20.910;2023-05-07T10:05:04;22.90;34.90
21171;DHT22;10743;52.160;20.910;2023-05-07T10:07:33;22.90;35.20
21171;DHT22;10743;52.160;20.910;2023-05-07T10:10:06;23.00;35.70
21171;DHT22;10743;52.160;20.910;2023-05-07T10:12:38;23.00;35.50
21171;DHT22;10743;52.160;20.910;2023-05-07T10:15:13;23.00;35.50
21171;DHT22;10743;52.160;20.910;2023-05-07T10:17:45;23.00;35.20
21171;DHT22;10743;52.160;20.910;2023-05-07T10:20:12;23.10;35.30
21171;DHT22;10743;52.160;20.910;2023-05-07T10:22:44;23.10;35.50
21171;DHT22;10743;52.160;20.910;2023-05-07T10:25:23;23.20;35.50
21171;DHT22;10743;52.160;20.910;2023-05-07T10:28:06;23.30;35.30
21171;DHT22;10743;52.160;20.910;2023-05-07T10:33:11;23.30;35.30
21171;DHT22;10743;52.160;20.910;2023-05-07T10:35:45;23.40;35.10
21171;DHT22;10743;52.160;20.910;2023-05-07T10:38:15;23.40;34.80
21171;DHT22;10743;52.160;20.910;2023-05-07T10:40:44;23.40;34.70
21171;DHT22;10743;52.160;20.910;2023-05-07T10:43:15;23.40;34.40
21171;DHT22;10743;52.160;20.910;2023-05-07T10:46:16;23.40;34.60
21171;DHT22;10743;52.160;20.910;2023-05-07T10:49:09;23.40;34.70
21171;DHT22;10743;52.160;20.910;2023-05-07T10:52:24;23.40;34.80
21171;DHT22;10743;52.160;20.910;2023-05-07T10:58:23;23.60;34.30
21171;DHT22;10743;52.160;20.910;2023-05-07T11:01:14;23.60;34.60
21171;DHT22;10743;52.160;20.910;2023-05-07T11:04:15;23.60;34.40
21171;DHT22;10743;52.160;20.910;2023-05-07T11:15:14;23.70;33.90
21171;DHT22;10743;52.160;20.910;2023-05-07T11:17:56;23.70;33.90
21171;DHT22;10743;52.160;20.910;2023-05-07T11:26:26;23.80;33.80
21171;DHT22;10743;52.160;20.910;2023-05-07T11:28:54;23.90;34.00
21171;DHT22;10743;52.160;20.910;2023-05-07T11:31:27;23.90;33.70
21171;DHT22;10743;52.160;20.910;2023-05-07T11:33:57;24.00;33.10
21171;DHT22;10743;52.160;20.910;2023-05-07T11:36:25;24.00;32.90
21171;DHT22;10743;52.160;20.910;2023-05-07T11:39:01;24.00;33.30
21171;DHT22;10743;52.160;20.910;2023-05-07T11:41:36;24.10;33.40
21171;DHT22;10743;52.160;20.910;2023-05-07T11:44:06;24.10;33.50
21171;DHT22;10743;52.160;20.910;2023-05-07T11:46:33;24.20;33.40
21171;DHT22;10743;52.160;20.910;2023-05-07T11:49:00;24.20;33.60
21171;DHT22;10743;52.160;20.910;2023-05-07T11:51:27;24.30;33.40
21171;DHT22;10743;52.160;20.910;2023-05-07T11:53:54;24.30;33.20
21171;DHT22;10743;52.160;20.910;2023-05-07T11:56:21;24.30;32.80
21171;DHT22;10743;52.160;20.910;2023-05-07T11:58:49;24.40;32.90
21171;DHT22;10743;52.160;20.910;2023-05-07T12:01:16;24.50;33.20
21171;DHT22;10743;52.160;20.910;2023-05-07T12:03:44;24.50;33.10
21171;DHT22;10743;52.160;20.910;2023-05-07T12:06:15;24.60;33.10
21171;DHT22;10743;52.160;20.910;2023-05-07T12:08:44;24.60;33.00
21171;DHT22;10743;52.160;20.910;2023-05-07T12:11:16;24.70;32.40
21171;DHT22;10743;52.160;20.910;2023-05-07T12:13:45;24.70;31.90
21171;DHT22;10743;52.160;20.910;2023-05-07T12:16:12;24.70;32.20
21171;DHT22;10743;52.160;20.910;2023-05-07T12:18:40;24.80;32.10
21171;DHT22;10743;52.160;20.910;2023-05-07T12:21:07;24.80;32.00
21171;DHT22;10743;52.160;20.910;2023-05-07T12:23:36;24.80;31.90
21171;DHT22;10743;52.160;20.910;2023-05-07T12:26:04;24.80;31.90
21171;DHT22;10743;52.160;20.910;2023-05-07T12:28:37;24.80;31.60
21171;DHT22;10743;52.160;20.910;2023-05-07T12:31:06;24.80;31.60
21171;DHT22;10743;52.160;20.910;2023-05-07T12:33:35;24.90;31.40
21171;DHT22;10743;52.160;20.910;2023-05-07T12:36:05;24.80;31.40
21171;DHT22;10743;52.160;20.910;2023-05-07T12:38:38;24.80;31.40
21171;DHT22;10743;52.160;20.910;2023-05-07T12:41:07;24.80;31.60
21171;DHT22;10743;52.160;20.910;2023-05-07T12:43:35;24.80;32.10
21171;DHT22;10743;52.160;20.910;2023-05-07T12:46:07;24.80;31.90
21171;DHT22;10743;52.160;20.910;2023-05-07T12:48:37;24.80;32.10
21171;DHT22;10743;52.160;20.910;2023-05-07T12:51:05;24.70;31.90
21171;DHT22;10743;52.160;20.910;2023-05-07T12:53:33;24.80;31.60
21171;DHT22;10743;52.160;20.910;2023-05-07T12:56:07;24.70;31.50
21171;DHT22;10743;52.160;20.910;2023-05-07T12:58:35;24.80;31.20
21171;DHT22;10743;52.160;20.910;2023-05-07T13:01:07;24.80;31.30
21171;DHT22;10743;52.160;20.910;2023-05-07T13:03:37;24.70;31.00
21171;DHT22;10743;52.160;20.910;2023-05-07T13:06:08;24.80;31.00
21171;DHT22;10743;52.160;20.910;2023-05-07T13:08:38;24.80;31.00
21171;DHT22;10743;52.160;20.910;2023-05-07T13:11:08;24.70;31.30
21171;DHT22;10743;52.160;20.910;2023-05-07T13:13:38;24.80;32.10
21171;DHT22;10743;52.160;20.910;2023-05-07T13:16:09;24.80;31.20
21171;DHT22;10743;52.160;20.910;2023-05-07T13:18:38;24.80;30.80
21171;DHT22;10743;52.160;20.910;2023-05-07T13:21:06;24.80;31.30
21171;DHT22;10743;52.160;20.910;2023-05-07T13:23:33;24.80;31.20
21171;DHT22;10743;52.160;20.910;2023-05-07T13:26:01;24.80;31.40
21171;DHT22;10743;52.160;20.910;2023-05-07T13:28:37;24.80;31.60
21171;DHT22;10743;52.160;20.910;2023-05-07T13:31:04;24.80;31.80
21171;DHT22;10743;52.160;20.910;2023-05-07T13:33:31;24.80;31.70
21171;DHT22;10743;52.160;20.910;2023-05-07T13:35:58;24.80;31.40
21171;DHT22;10743;52.160;20.910;2023-05-07T13:38:27;24.90;31.50
21171;DHT22;10743;52.160;20.910;2023-05-07T13:40:54;24.90;31.90
21171;DHT22;10743;52.160;20.910;2023-05-07T13:43:21;24.90;31.70
21171;DHT22;10743;52.160;20.910;2023-05-07T13:45:48;25.00;31.50
21171;DHT22;10743;52.160;20.910;2023-05-07T13:48:15;25.00;31.60
21171;DHT22;10743;52.160;20.910;2023-05-07T13:50:42;25.00;31.40
21171;DHT22;10743;52.160;20.910;2023-05-07T13:53:09;25.00;31.20
21171;DHT22;10743;52.160;20.910;2023-05-07T13:55:36;25.10;31.40
21171;DHT22;10743;52.160;20.910;2023-05-07T13:58:03;25.00;31.10
21171;DHT22;10743;52.160;20.910;2023-05-07T14:00:33;25.10;31.90
21171;DHT22;10743;52.160;20.910;2023-05-07T14:03:00;25.10;31.50
21171;DHT22;10743;52.160;20.910;2023-05-07T14:05:27;25.20;31.80
21171;DHT22;10743;52.160;20.910;2023-05-07T14:07:57;25.20;31.10
21171;DHT22;10743;52.160;20.910;2023-05-07T14:10:25;25.20;30.80
21171;DHT22;10743;52.160;20.910;2023-05-07T14:12:52;25.30;29.90
21171;DHT22;10743;52.160;20.910;2023-05-07T14:15:19;25.30;29.90
21171;DHT22;10743;52.160;20.910;2023-05-07T14:17:46;25.20;30.00
21171;DHT22;10743;52.160;20.910;2023-05-07T14:20:13;25.20;30.30
21171;DHT22;10743;52.160;20.910;2023-05-07T14:22:41;25.20;30.80
21171;DHT22;10743;52.160;20.910;2023-05-07T14:25:08;25.20;30.40
21171;DHT22;10743;52.160;20.910;2023-05-07T14:27:38;25.30;30.60
21171;DHT22;10743;52.160;20.910;2023-05-07T14:30:06;25.30;30.60
21171;DHT22;10743;52.160;20.910;2023-05-07T14:32:33;25.40;30.40
21171;DHT22;10743;52.160;20.910;2023-05-07T14:35:00;25.50;30.10
21171;DHT22;10743;52.160;20.910;2023-05-07T14:37:27;25.50;29.90
21171;DHT22;10743;52.160;20.910;2023-05-07T14:39:54;25.60;30.00
21171;DHT22;10743;52.160;20.910;2023-05-07T14:42:21;25.60;29.80
21171;DHT22;10743;52.160;20.910;2023-05-07T14:44:48;25.60;29.80
21171;DHT22;10743;52.160;20.910;2023-05-07T14:47:16;25.60;29.60
21171;DHT22;10743;52.160;20.910;2023-05-07T14:49:45;25.60;29.80
21171;DHT22;10743;52.160;20.910;2023-05-07T14:52:12;25.60;29.70
21171;DHT22;10743;52.160;20.910;2023-05-07T14:54:39;25.60;29.90
21171;DHT22;10743;52.160;20.910;2023-05-07T14:57:08;25.60;30.00
21171;DHT22;10743;52.160;20.910;2023-05-07T14:59:37;25.60;29.70
21171;DHT22;10743;52.160;20.910;2023-05-07T15:02:06;25.60;29.40
21171;DHT22;10743;52.160;20.910;2023-05-07T15:04:36;25.60;29.20
21171;DHT22;10743;52.160;20.910;2023-05-07T15:07:04;25.60;28.90
21171;DHT22;10743;52.160;20.910;2023-05-07T15:09:31;25.60;29.20
21171;DHT22;10743;52.160;20.910;2023-05-07T15:11:58;25.60;29.40
21171;DHT22;10743;52.160;20.910;2023-05-07T15:14:25;25.60;29.50
21171;DHT22;10743;52.160;20.910;2023-05-07T15:16:52;25.60;29.00
21171;DHT22;10743;52.160;20.910;2023-05-07T15:19:19;25.60;29.20
21171;DHT22;10743;52.160;20.910;2023-05-07T15:21:48;25.60;29.40
21171;DHT22;10743;52.160;20.910;2023-05-07T15:24:15;25.60;29.20
21171;DHT22;10743;52.160;20.910;2023-05-07T15:26:42;25.70;29.70
21171;DHT22;10743;52.160;20.910;2023-05-07T15:29:09;25.60;29.40
21171;DHT22;10743;52.160;20.910;2023-05-07T15:31:37;25.60;29.10
21171;DHT22;10743;52.160;20.910;2023-05-07T15:34:07;25.70;29.40
21171;DHT22;10743;52.160;20.910;2023-05-07T15:36:34;25.70;29.80
21171;DHT22;10743;52.160;20.910;2023-05-07T15:39:01;25.80;29.00
21171;DHT22;10743;52.160;20.910;2023-05-07T15:41:30;25.80;29.00
21171;DHT22;10743;52.160;20.910;2023-05-07T15:43:57;25.70;28.80
21171;DHT22;10743;52.160;20.910;2023-05-07T15:46:24;25.70;29.00
21171;DHT22;10743;52.160;20.910;2023-05-07T15:48:52;25.80;29.20